Eaton, Idaho
Current Conditions -  °F | °C
As of 9:53 PM on Friday 24 Oct 2014 (Local Time) from KONO Reporting Station
Clear Clear  
Wind Chill: 51°   Ceiling: Unl
Heat Index: 51°   Visibility: 10mi
Dew Point: 48°   Wind: 5mph
Humidity: 89%   Direction: 250°WSW
Pressure: 29.96"   Gusts: NA
Location:  44.398°N, 116.943°W
Report Text: KONO 250353Z AUTO 25004KT 10SM CLR 11/09 A2996 RMK AO2 SLP147 T01060089
Loading
Personal Weather Stations






























Interactive Weather Map
Tropical Storm Tracking
New forecast layout! Learn more

10-Day Weather Forecast

Advertisements
Track Severe Weather on mobile